< < Back
Terminal Aerodrome Forecast


Current Version              Previous Versions:   1  2  3  4  5  6  7  8  9  

Terminal Aerodrome Forecast

212
FTUS42 KCHS 031038 AAA
TAFSAV
TAF AMD
KSAV 031038Z 0311/0406 23005KT P6SM SCT150
     FM031400 26010KT P6SM FEW035 SCT080
     FM031900 23012G18KT P6SM SCT040 BKN080
     FM040400 22007KT P6SM FEW080=



Latest METAR

176
SAUS80 KWBC 040300 RRA
MTRSAV
METAR KSAV 040253Z 19009KT 10SM CLR 27/22 A3004 RMK AO2 SLP173 T02720222
53016


USA.gov is the U.S. government's official web portal to all federal, state and local government web resources and services.